Terminal Aerodrome Forecast
Issued by NWS Cleveland, OH

Home | Current Version | Previous Version | Text Only | Print | Product List | Glossary Off
Versions: 1 2 3 4 5 6 7 8 9 10 11 12 13 14 15 16 17 18 19 20 21 22 23 24 25 26 27 28 29 30 31 32 33 34 35 36 37

000
FTUS41 KCLE 030200 AAA
TAFCLE
TAF AMD
KCLE 030254Z 0303/0406 16005KT P6SM OVC200
     FM031500 14010KT 6SM -SN OVC040
     FM031700 15010KT 3SM -FZRASNPL BR SCT015 OVC040
     FM032000 18015KT 2SM -RA BR OVC009 WS020/23045KT
     FM040100 24015KT 5SM BR OVC005=

USA.gov is the U.S. government's official web portal to all federal, state and local government web resources and services.